Augusta Springs, Virginia
Current Conditions -  °F | °C
As of 8:35 PM on Friday 19 Dec 2014 (Local Time) from KW13 Reporting Station
Clear Clear  
Wind Chill: -2°   Ceiling: Unl
Heat Index: -2°   Visibility: 10mi
Dew Point: -6°   Wind: 3mph
Humidity: 73%   Direction: 300°WNW
Pressure: 30.2"   Gusts: NA
Location:  38.1°N, 79.32°W
Report Text: KW13 200135Z AUTO 30003KT 10SM CLR M02/M06 A3020 RMK AO1 T10181060
Loading
Personal Weather Stations






























Interactive Weather Map New forecast layout! Learn more

10-Day Weather Forecast

Advertisements
Track Severe Weather on mobile